Time;durP1;ratioP1;P1;durP2;ratioP2;P2;SDS_P1;SDS_P2;PMS_P1;PMS_P2;Temp;Humidity;BMP_temperature;BMP_pressure;BME280_temperature;BME280_humidity;BME280_pressure;Samples;Min_cycle;Max_cycle;Signal;HPM_P1;HPM_P2
2022/03/22 00:00:58;;;;;;;7.90;6.90;;;5.70;51.30;;;;;;985815;145;27263;-73
2022/03/22 00:03:25;;;;;;;9.70;7.57;;;5.70;51.40;;;;;;986445;145;27228;-73
2022/03/22 00:05:52;;;;;;;11.63;7.90;;;5.70;51.50;;;;;;982941;144;27253;-74
2022/03/22 00:08:18;;;;;;;9.53;7.00;;;5.60;51.40;;;;;;969608;146;27371;-72
2022/03/22 00:10:45;;;;;;;12.03;7.40;;;5.60;51.50;;;;;;968874;146;27325;-73
2022/03/22 00:13:11;;;;;;;10.77;6.47;;;5.60;51.60;;;;;;968279;145;27227;-73
2022/03/22 00:15:38;;;;;;;8.60;7.63;;;5.50;52.30;;;;;;967951;146;27352;-73
2022/03/22 00:18:04;;;;;;;10.60;7.33;;;5.50;51.70;;;;;;970708;146;27396;-74
2022/03/22 00:20:31;;;;;;;7.50;6.77;;;5.50;51.90;;;;;;969933;146;27300;-74
2022/03/22 00:22:58;;;;;;;9.97;7.90;;;5.40;52.10;;;;;;969159;146;27294;-73
2022/03/22 00:25:24;;;;;;;9.83;7.30;;;5.40;52.10;;;;;;970476;146;27303;-73
2022/03/22 00:27:55;;;;;;;9.57;7.50;;;5.40;52.30;;;;;;968138;146;27222;-73
2022/03/22 00:30:23;;;;;;;9.83;7.37;;;5.40;52.40;;;;;;970463;145;27844;-74
2022/03/22 00:32:52;;;;;;;7.97;7.17;;;5.40;52.40;;;;;;968453;146;27403;-73
2022/03/22 00:35:18;;;;;;;7.90;7.10;;;5.30;52.50;;;;;;969094;146;27231;-73
2022/03/22 00:37:43;;;;;;;8.67;6.67;;;5.30;52.60;;;;;;968457;146;27242;-73
2022/03/22 00:40:18;;;;;;;9.23;6.93;;;5.20;52.70;;;;;;970028;146;27227;-73
2022/03/22 00:42:46;;;;;;;7.10;6.47;;;5.20;52.80;;;;;;970357;146;27286;-72
2022/03/22 00:45:11;;;;;;;8.37;6.47;;;5.10;52.70;;;;;;969522;146;27420;-73
2022/03/22 00:47:38;;;;;;;11.63;6.87;;;5.10;52.90;;;;;;971118;146;27395;-73
2022/03/22 00:50:04;;;;;;;6.83;5.37;;;5.10;52.90;;;;;;969806;146;27232;-73
2022/03/22 00:52:32;;;;;;;8.93;6.67;;;5.00;53.00;;;;;;970276;146;27672;-74
2022/03/22 00:54:58;;;;;;;7.87;6.57;;;5.00;53.00;;;;;;970132;146;27294;-74
2022/03/22 00:57:24;;;;;;;6.67;5.93;;;4.90;53.20;;;;;;970712;146;27277;-72
2022/03/22 01:00:04;;;;;;;8.07;7.00;;;4.90;53.30;;;;;;968701;146;27374;-73
2022/03/22 01:02:29;;;;;;;8.70;6.77;;;4.80;53.30;;;;;;968661;146;27440;-73
2022/03/22 01:05:25;;;;;;;14.60;6.60;;;4.70;53.40;;;;;;968805;144;27226;-73
2022/03/22 01:07:52;;;;;;;8.63;6.77;;;4.70;53.50;;;;;;967492;146;27362;-74
2022/03/22 01:10:19;;;;;;;8.93;7.73;;;4.60;53.40;;;;;;967884;146;27273;-73
2022/03/22 01:12:45;;;;;;;7.40;6.60;;;4.60;53.70;;;;;;967930;146;27281;-73
2022/03/22 01:15:15;;;;;;;8.00;6.47;;;4.60;54.00;;;;;;969939;146;27299;-73
2022/03/22 01:17:38;;;;;;;8.37;7.03;;;4.50;53.90;;;;;;968492;146;27266;-76
2022/03/22 01:20:05;;;;;;;7.63;6.83;;;4.50;54.00;;;;;;970062;146;28039;-73
2022/03/22 01:22:32;;;;;;;9.57;7.97;;;4.50;54.20;;;;;;969107;146;27208;-74
2022/03/22 01:24:59;;;;;;;10.43;7.30;;;4.40;54.20;;;;;;968771;146;27294;-74
2022/03/22 01:27:26;;;;;;;7.67;6.50;;;4.40;54.40;;;;;;970583;146;27254;-74
2022/03/22 01:29:51;;;;;;;8.00;6.57;;;4.40;54.50;;;;;;970456;145;27371;-75
2022/03/22 01:32:18;;;;;;;8.37;6.63;;;4.40;54.50;;;;;;970585;146;27303;-73
2022/03/22 01:34:44;;;;;;;7.40;6.27;;;4.30;54.50;;;;;;970696;146;27291;-73
2022/03/22 01:37:11;;;;;;;7.70;6.43;;;4.30;54.60;;;;;;970281;146;27344;-74
2022/03/22 01:39:38;;;;;;;11.10;7.63;;;4.20;54.60;;;;;;970555;146;27187;-74
2022/03/22 01:42:04;;;;;;;10.57;7.77;;;4.20;54.80;;;;;;970659;146;27325;-75
2022/03/22 01:44:32;;;;;;;8.57;7.40;;;4.20;54.80;;;;;;969711;146;27319;-74
2022/03/22 01:47:03;;;;;;;8.43;7.23;;;4.20;54.60;;;;;;971557;146;27356;-74
2022/03/22 01:49:27;;;;;;;8.77;7.17;;;4.10;54.80;;;;;;967802;146;27259;-74
2022/03/22 01:51:53;;;;;;;8.20;6.70;;;4.10;54.80;;;;;;970302;146;27835;-74
2022/03/22 01:54:20;;;;;;;8.87;7.13;;;4.00;55.00;;;;;;969734;146;27282;-76
2022/03/22 01:56:46;;;;;;;8.47;7.00;;;4.00;55.00;;;;;;968340;145;27321;-73
2022/03/22 01:59:13;;;;;;;7.37;6.63;;;3.90;55.10;;;;;;969406;146;27326;-73
2022/03/22 02:07:09;;;;;;;7.17;6.43;;;3.80;55.20;;;;;;969142;146;27488;-73
2022/03/22 02:09:35;;;;;;;8.33;7.17;;;3.70;55.30;;;;;;970159;146;27450;-73
2022/03/22 02:12:02;;;;;;;8.17;6.90;;;3.70;55.30;;;;;;969800;146;27351;-73
2022/03/22 02:14:29;;;;;;;8.17;6.87;;;3.60;55.40;;;;;;970404;146;27223;-74
2022/03/22 02:16:55;;;;;;;9.10;7.63;;;3.60;55.50;;;;;;970186;146;27276;-75
2022/03/22 02:19:22;;;;;;;9.23;7.10;;;3.50;55.60;;;;;;969847;146;27392;-74
2022/03/22 02:21:48;;;;;;;8.63;7.40;;;3.50;55.70;;;;;;970447;146;27373;-72
2022/03/22 02:24:15;;;;;;;11.10;7.13;;;3.40;55.80;;;;;;969473;146;27332;-73
2022/03/22 02:26:42;;;;;;;7.60;6.90;;;3.40;55.90;;;;;;967305;146;27228;-73
2022/03/22 02:29:08;;;;;;;8.67;7.27;;;3.30;55.80;;;;;;968223;144;27296;-74
2022/03/22 02:31:35;;;;;;;9.07;7.03;;;3.30;55.90;;;;;;970195;146;27338;-73
2022/03/22 02:34:01;;;;;;;9.03;5.90;;;3.30;56.00;;;;;;969397;146;27688;-73
2022/03/22 02:36:28;;;;;;;9.40;7.30;;;3.20;56.00;;;;;;968504;146;27269;-73
2022/03/22 02:38:54;;;;;;;8.03;6.70;;;3.20;56.20;;;;;;968498;145;27365;-73
2022/03/22 02:41:21;;;;;;;9.83;6.57;;;3.20;56.20;;;;;;968535;146;27248;-75
2022/03/22 02:43:48;;;;;;;8.27;6.33;;;3.10;56.30;;;;;;969755;146;27489;-73
2022/03/22 02:46:14;;;;;;;7.63;6.50;;;3.10;56.30;;;;;;967777;146;27255;-73
2022/03/22 02:48:41;;;;;;;8.30;6.30;;;3.10;56.50;;;;;;970779;145;27270;-73
2022/03/22 02:51:07;;;;;;;7.40;6.30;;;3.00;56.50;;;;;;968797;144;27264;-74
2022/03/22 02:53:34;;;;;;;10.87;6.90;;;3.00;56.50;;;;;;969835;146;27249;-74
2022/03/22 02:56:01;;;;;;;8.67;7.33;;;3.00;56.70;;;;;;967659;146;27331;-73
2022/03/22 02:58:27;;;;;;;7.33;6.33;;;3.00;56.60;;;;;;967534;146;27274;-72
2022/03/22 03:00:54;;;;;;;7.80;6.43;;;2.90;56.70;;;;;;966901;146;27389;-73
2022/03/22 03:03:22;;;;;;;7.17;6.30;;;2.90;56.70;;;;;;969800;146;27235;-74
2022/03/22 03:05:47;;;;;;;7.97;6.73;;;2.90;56.80;;;;;;968837;146;27248;-73
2022/03/22 03:08:13;;;;;;;8.63;6.53;;;2.80;57.00;;;;;;970321;146;27425;-78
2022/03/22 03:10:40;;;;;;;11.83;8.07;;;2.80;57.00;;;;;;968825;146;27272;-77
2022/03/22 03:13:07;;;;;;;11.33;7.63;;;2.80;57.10;;;;;;970068;146;27238;-75
2022/03/22 03:15:33;;;;;;;8.23;7.27;;;2.80;57.30;;;;;;967925;146;27333;-75
2022/03/22 03:18:00;;;;;;;7.70;6.20;;;2.70;57.30;;;;;;969000;146;27377;-75
2022/03/22 03:20:26;;;;;;;7.20;5.40;;;2.80;57.50;;;;;;968612;146;27323;-74
2022/03/22 03:22:53;;;;;;;7.33;6.33;;;2.70;57.40;;;;;;970644;146;28347;-75
2022/03/22 03:25:20;;;;;;;10.70;7.13;;;2.70;57.40;;;;;;971726;146;27206;-75
2022/03/22 03:27:46;;;;;;;7.30;6.43;;;2.70;57.50;;;;;;970335;146;27369;-75
2022/03/22 03:30:13;;;;;;;8.47;6.47;;;2.70;57.60;;;;;;968813;145;27255;-75
2022/03/22 03:32:39;;;;;;;9.70;6.67;;;2.70;57.60;;;;;;972081;146;27347;-75
2022/03/22 03:35:06;;;;;;;9.47;7.27;;;2.70;57.70;;;;;;969744;146;27798;-75
2022/03/22 03:37:36;;;;;;;8.00;7.20;;;2.80;57.80;;;;;;970980;146;27272;-75
2022/03/22 03:40:05;;;;;;;9.33;6.47;;;2.80;57.90;;;;;;969132;146;27309;-75
2022/03/22 03:42:32;;;;;;;10.20;7.17;;;2.70;57.80;;;;;;971607;146;27226;-75
2022/03/22 03:47:43;;;;;;;11.17;7.67;;;2.70;57.90;;;;;;968254;146;27347;-75
2022/03/22 03:50:09;;;;;;;9.43;6.83;;;2.80;57.90;;;;;;967991;146;27336;-75
2022/03/22 03:52:36;;;;;;;10.67;7.60;;;2.70;58.00;;;;;;968515;146;27317;-75
2022/03/22 03:55:03;;;;;;;9.17;7.27;;;2.80;58.20;;;;;;969346;146;27530;-75
2022/03/22 03:57:29;;;;;;;7.67;6.83;;;2.70;58.10;;;;;;967779;146;27344;-75
2022/03/22 03:59:56;;;;;;;10.17;7.00;;;2.70;58.10;;;;;;969070;146;28115;-74
2022/03/22 04:02:23;;;;;;;9.67;6.67;;;2.70;58.10;;;;;;969299;146;27330;-75
2022/03/22 04:04:52;;;;;;;11.17;7.77;;;2.70;58.10;;;;;;968175;146;27372;-75
2022/03/22 04:07:18;;;;;;;7.53;6.73;;;2.70;58.20;;;;;;966733;146;27379;-75
2022/03/22 04:09:42;;;;;;;8.40;6.97;;;2.60;58.10;;;;;;977064;144;27309;-74
2022/03/22 04:12:09;;;;;;;8.80;7.13;;;2.60;58.20;;;;;;982551;141;27323;-75
2022/03/22 04:14:35;;;;;;;8.07;7.20;;;2.60;58.10;;;;;;980493;144;27285;-75
2022/03/22 04:17:02;;;;;;;9.87;8.13;;;2.60;58.20;;;;;;980489;144;27346;-75
2022/03/22 04:19:29;;;;;;;10.77;7.57;;;2.50;58.30;;;;;;981164;144;27185;-74
2022/03/22 04:21:55;;;;;;;8.33;7.10;;;2.50;58.30;;;;;;983139;144;27829;-75
2022/03/22 04:24:22;;;;;;;7.80;7.00;;;2.40;58.30;;;;;;982183;144;27291;-74
2022/03/22 04:26:48;;;;;;;9.13;7.97;;;2.40;58.40;;;;;;981817;144;27315;-75
2022/03/22 04:34:44;;;;;;;7.97;7.03;;;2.30;58.50;;;;;;982352;144;27369;-74
2022/03/22 04:37:12;;;;;;;8.63;7.37;;;2.20;58.60;;;;;;980362;144;28474;-74
2022/03/22 04:39:37;;;;;;;10.47;6.80;;;2.20;58.60;;;;;;981799;144;27241;-74
2022/03/22 04:42:04;;;;;;;7.80;6.93;;;2.20;58.80;;;;;;984452;144;27333;-75
2022/03/22 04:44:30;;;;;;;8.47;7.57;;;2.20;59.00;;;;;;983149;144;27287;-74
2022/03/22 04:46:57;;;;;;;7.57;6.83;;;2.10;59.00;;;;;;980934;144;27398;-74
2022/03/22 04:49:23;;;;;;;11.73;7.93;;;2.10;59.00;;;;;;980509;144;27421;-74
2022/03/22 04:57:19;;;;;;;8.93;6.97;;;2.10;59.30;;;;;;981971;144;27244;-76
2022/03/22 04:59:47;;;;;;;8.20;6.67;;;2.10;59.40;;;;;;982628;144;27409;-76
2022/03/22 05:02:12;;;;;;;6.93;5.87;;;2.10;59.60;;;;;;981168;144;27409;-76
2022/03/22 05:04:39;;;;;;;8.03;5.97;;;2.10;59.60;;;;;;981547;144;27225;-76
2022/03/22 05:07:06;;;;;;;7.63;5.83;;;2.10;59.70;;;;;;983223;144;27245;-76
2022/03/22 05:09:32;;;;;;;8.40;6.97;;;2.10;59.70;;;;;;981252;144;27374;-77
2022/03/22 05:11:59;;;;;;;8.40;6.80;;;2.10;59.80;;;;;;983700;144;27321;-76
2022/03/22 05:14:25;;;;;;;8.27;6.57;;;2.10;59.80;;;;;;983292;144;27283;-76
2022/03/22 05:16:52;;;;;;;9.13;6.83;;;2.10;59.80;;;;;;980680;144;27376;-76
2022/03/22 05:19:19;;;;;;;10.70;6.87;;;2.10;59.80;;;;;;983053;144;27311;-76
2022/03/22 05:21:45;;;;;;;7.93;6.60;;;2.10;59.90;;;;;;982749;144;27348;-77
2022/03/22 05:24:12;;;;;;;10.10;7.17;;;2.10;59.90;;;;;;982162;144;27413;-76
2022/03/22 05:26:38;;;;;;;13.47;8.03;;;2.10;59.90;;;;;;981076;144;27236;-76
2022/03/22 05:29:05;;;;;;;9.83;6.90;;;2.00;59.90;;;;;;983793;144;27246;-76
2022/03/22 05:31:31;;;;;;;6.30;5.63;;;2.00;60.00;;;;;;981928;144;27273;-76
2022/03/22 05:33:58;;;;;;;7.60;6.10;;;2.00;60.00;;;;;;982268;144;27237;-76
2022/03/22 05:36:25;;;;;;;7.53;6.70;;;2.00;60.00;;;;;;981457;144;27470;-76
2022/03/22 05:38:52;;;;;;;7.80;6.90;;;2.00;60.10;;;;;;982281;144;27891;-76
2022/03/22 05:41:18;;;;;;;11.57;7.83;;;2.10;60.30;;;;;;980460;144;27235;-76
2022/03/22 05:43:45;;;;;;;7.00;6.30;;;2.10;60.40;;;;;;982978;144;27289;-76
2022/03/22 05:46:11;;;;;;;10.53;7.53;;;2.10;60.30;;;;;;982864;144;27309;-76
2022/03/22 05:48:40;;;;;;;6.40;5.53;;;2.10;60.30;;;;;;982599;144;27401;-77
2022/03/22 05:51:07;;;;;;;9.03;6.93;;;2.10;60.40;;;;;;980852;144;27299;-76
2022/03/22 05:53:33;;;;;;;9.40;7.43;;;2.20;60.60;;;;;;981919;144;27316;-76
2022/03/22 05:56:00;;;;;;;8.43;7.10;;;2.30;61.10;;;;;;981759;144;27249;-76
2022/03/22 05:58:27;;;;;;;8.83;7.80;;;2.50;61.70;;;;;;980345;144;27370;-76
2022/03/22 06:00:53;;;;;;;10.77;7.23;;;2.70;62.40;;;;;;983293;144;27326;-76
2022/03/22 06:03:20;;;;;;;9.73;7.90;;;3.10;62.90;;;;;;982144;144;27368;-75
2022/03/22 06:05:47;;;;;;;13.00;8.00;;;3.50;63.40;;;;;;982424;144;27248;-76
2022/03/22 06:08:13;;;;;;;9.60;7.83;;;4.00;63.50;;;;;;980484;144;27322;-77
2022/03/22 06:10:40;;;;;;;10.80;7.77;;;4.50;63.30;;;;;;982885;144;27316;-75
2022/03/22 06:13:06;;;;;;;10.00;7.53;;;5.10;63.30;;;;;;986659;145;27386;-75
2022/03/22 06:15:33;;;;;;;10.07;8.23;;;5.70;63.00;;;;;;986122;143;27221;-76
2022/03/22 06:18:00;;;;;;;12.53;10.07;;;6.30;62.70;;;;;;984458;145;27277;-74
2022/03/22 06:20:31;;;;;;;12.40;10.73;;;7.00;62.30;;;;;;982615;145;27339;-73
2022/03/22 06:22:58;;;;;;;13.90;10.10;;;7.70;61.80;;;;;;986003;142;27263;-74
2022/03/22 06:25:25;;;;;;;12.90;10.60;;;8.40;61.00;;;;;;984140;145;27981;-74
2022/03/22 06:27:51;;;;;;;14.23;11.10;;;9.10;60.40;;;;;;986025;145;27174;-74
2022/03/22 06:30:18;;;;;;;11.93;10.73;;;9.80;59.80;;;;;;986658;143;27346;-74
2022/03/22 06:32:50;;;;;;;12.30;10.53;;;10.50;59.10;;;;;;986013;142;27401;-74
2022/03/22 06:35:23;;;;;;;13.07;10.33;;;11.20;58.40;;;;;;984407;145;27328;-74
2022/03/22 06:37:49;;;;;;;11.17;9.97;;;11.90;57.60;;;;;;983455;145;27337;-74
2022/03/22 06:40:16;;;;;;;11.23;10.10;;;12.60;56.30;;;;;;983158;145;27322;-74
2022/03/22 06:42:42;;;;;;;13.47;9.90;;;13.20;56.00;;;;;;985240;143;27267;-74
2022/03/22 06:45:10;;;;;;;12.43;10.40;;;13.70;55.20;;;;;;984082;145;27296;-74
2022/03/22 06:47:36;;;;;;;10.70;9.70;;;14.30;54.60;;;;;;984858;145;27331;-74
2022/03/22 06:50:02;;;;;;;10.57;9.47;;;14.80;53.90;;;;;;984393;145;27297;-75
2022/03/22 06:52:29;;;;;;;10.97;9.13;;;15.30;53.20;;;;;;985912;145;27284;-74
2022/03/22 06:54:55;;;;;;;11.70;8.90;;;15.80;52.50;;;;;;984306;145;27217;-75
2022/03/22 06:57:22;;;;;;;9.27;8.30;;;16.20;51.90;;;;;;984481;145;27514;-74
2022/03/22 06:59:49;;;;;;;8.78;7.97;;;16.60;51.30;;;;;;983426;145;27312;-74
2022/03/22 07:02:17;;;;;;;9.55;8.65;;;17.00;50.80;;;;;;984346;145;27245;-74
2022/03/22 07:04:42;;;;;;;11.20;8.83;;;17.40;50.30;;;;;;986353;145;27243;-75
2022/03/22 07:07:08;;;;;;;9.08;8.18;;;17.80;49.80;;;;;;985339;145;27296;-75
2022/03/22 07:09:35;;;;;;;9.33;8.55;;;18.20;49.20;;;;;;985469;145;27376;-75
2022/03/22 07:12:01;;;;;;;11.03;9.13;;;18.60;48.70;;;;;;973279;144;27420;-74
2022/03/22 07:14:28;;;;;;;12.30;9.88;;;18.90;48.20;;;;;;968155;146;28502;-74
2022/03/22 07:16:55;;;;;;;16.35;12.47;;;19.30;47.80;;;;;;970757;146;27339;-74
2022/03/22 07:19:21;;;;;;;12.15;10.55;;;19.60;47.20;;;;;;967826;146;27269;-74
2022/03/22 07:21:48;;;;;;;11.08;9.98;;;20.00;46.60;;;;;;968428;146;27303;-74
2022/03/22 07:24:15;;;;;;;10.75;9.45;;;20.30;46.20;;;;;;971853;146;27396;-74
2022/03/22 07:26:41;;;;;;;10.20;9.20;;;20.60;46.40;;;;;;970370;146;27228;-74
2022/03/22 07:29:08;;;;;;;9.80;8.83;;;20.90;45.40;;;;;;969240;146;27249;-74
2022/03/22 07:31:40;;;;;;;9.48;8.68;;;21.20;45.10;;;;;;966058;146;27397;-74
2022/03/22 07:34:06;;;;;;;9.20;8.40;;;21.60;44.70;;;;;;971290;146;27337;-74
2022/03/22 07:36:35;;;;;;;10.95;9.95;;;22.00;44.50;;;;;;968771;146;27760;-74
2022/03/22 07:39:00;;;;;;;9.55;8.65;;;22.40;44.10;;;;;;969320;146;27653;-75
2022/03/22 07:41:26;;;;;;;9.43;8.58;;;22.90;43.70;;;;;;968102;146;27303;-75
2022/03/22 07:43:54;;;;;;;10.20;9.30;;;23.30;43.10;;;;;;969995;146;27310;-75
2022/03/22 07:46:19;;;;;;;10.15;9.08;;;23.80;42.60;;;;;;968451;146;27375;-74
2022/03/22 07:48:46;;;;;;;10.28;9.33;;;24.20;42.70;;;;;;967613;146;28488;-74
2022/03/22 07:54:00;;;;;;;9.33;8.43;;;24.90;41.10;;;;;;969471;146;27362;-75
2022/03/22 07:56:24;;;;;;;8.73;7.83;;;25.40;40.80;;;;;;970325;144;27347;-75
2022/03/22 07:58:51;;;;;;;9.73;8.35;;;25.80;40.30;;;;;;968314;146;27283;-75
2022/03/22 08:01:17;;;;;;;8.90;8.10;;;26.20;39.80;;;;;;969726;146;27331;-75
2022/03/22 08:03:44;;;;;;;8.60;7.80;;;26.60;39.50;;;;;;967841;146;27345;-75
2022/03/22 08:06:10;;;;;;;9.73;8.90;;;27.00;39.00;;;;;;970225;146;27325;-75
2022/03/22 08:08:43;;;;;;;10.30;8.80;;;27.40;38.60;;;;;;969397;146;27322;-75
2022/03/22 08:11:06;;;;;;;10.82;9.43;;;27.70;38.00;;;;;;968549;146;27404;-75
2022/03/22 08:13:34;;;;;;;10.93;8.75;;;28.10;37.50;;;;;;966414;146;27253;-75
2022/03/22 08:15:59;;;;;;;9.43;8.53;;;28.30;36.90;;;;;;970046;146;27281;-75
2022/03/22 08:18:26;;;;;;;9.95;9.15;;;28.60;36.50;;;;;;971485;146;27321;-75
2022/03/22 08:20:52;;;;;;;9.65;8.80;;;28.80;36.20;;;;;;968392;146;27260;-75
2022/03/22 08:23:19;;;;;;;10.10;9.20;;;29.10;35.80;;;;;;968478;146;27387;-75
2022/03/22 08:25:50;;;;;;;9.60;8.70;;;29.30;35.10;;;;;;968845;146;27292;-75
2022/03/22 08:28:12;;;;;;;10.65;8.73;;;29.50;34.80;;;;;;968240;146;27252;-75
2022/03/22 08:30:39;;;;;;;9.95;9.15;;;29.70;34.60;;;;;;968642;146;27240;-75
2022/03/22 08:33:06;;;;;;;10.18;9.18;;;29.90;34.30;;;;;;970330;146;27260;-75
2022/03/22 08:35:32;;;;;;;8.70;7.80;;;30.00;34.10;;;;;;967949;146;27289;-75
2022/03/22 08:37:58;;;;;;;9.33;8.53;;;30.20;33.50;;;;;;970771;144;27402;-75
2022/03/22 08:40:25;;;;;;;10.15;9.25;;;30.40;33.20;;;;;;969543;146;27294;-76
2022/03/22 08:42:54;;;;;;;10.23;9.33;;;30.50;32.90;;;;;;970732;146;27401;-76
2022/03/22 08:45:21;;;;;;;8.53;7.65;;;30.70;32.40;;;;;;970704;146;27296;-76
2022/03/22 08:47:47;;;;;;;8.05;7.35;;;30.70;32.30;;;;;;964060;145;27272;-75
2022/03/22 08:50:14;;;;;;;7.85;7.03;;;30.90;32.10;;;;;;961877;147;27286;-75
2022/03/22 08:52:40;;;;;;;8.00;7.30;;;31.00;31.80;;;;;;964455;146;27600;-76
2022/03/22 08:55:07;;;;;;;7.47;6.78;;;31.10;31.50;;;;;;962797;147;27236;-75
2022/03/22 08:57:34;;;;;;;8.38;7.53;;;31.30;31.20;;;;;;963034;147;27428;-75
2022/03/22 09:00:00;;;;;;;8.95;7.72;;;31.40;31.00;;;;;;961416;147;27842;-75
2022/03/22 09:02:27;;;;;;;8.15;7.42;;;31.60;30.70;;;;;;964675;147;27418;-76
2022/03/22 09:07:38;;;;;;;7.22;6.25;;;31.80;30.00;;;;;;961863;147;27389;-76
2022/03/22 09:10:05;;;;;;;7.28;6.58;;;31.90;29.90;;;;;;961519;147;27420;-76
2022/03/22 09:12:31;;;;;;;7.10;6.50;;;32.00;29.60;;;;;;944705;147;27394;-76
2022/03/22 09:14:58;;;;;;;6.17;5.67;;;32.10;29.50;;;;;;947383;147;27259;-76
2022/03/22 09:17:24;;;;;;;6.22;5.62;;;32.30;29.10;;;;;;970733;144;27262;-76
2022/03/22 09:19:51;;;;;;;6.78;6.20;;;32.30;28.70;;;;;;972326;144;27261;-77
2022/03/22 09:22:18;;;;;;;6.90;6.33;;;32.30;28.60;;;;;;937249;148;27351;-76
2022/03/22 09:24:44;;;;;;;6.58;6.03;;;32.30;28.10;;;;;;953822;145;28469;-76
2022/03/22 09:27:11;;;;;;;5.97;5.47;;;32.20;28.00;;;;;;955015;145;27272;-77
2022/03/22 09:29:37;;;;;;;6.67;6.08;;;32.10;27.90;;;;;;951367;147;27369;-77
2022/03/22 09:32:04;;;;;;;6.58;6.05;;;32.10;28.00;;;;;;970806;144;27396;-77
2022/03/22 09:34:32;;;;;;;9.40;6.37;;;32.00;27.70;;;;;;969334;144;27331;-76
2022/03/22 09:36:58;;;;;;;7.28;6.58;;;31.90;27.60;;;;;;960405;147;27348;-76
2022/03/22 09:39:24;;;;;;;6.85;6.22;;;31.90;27.50;;;;;;961540;147;27371;-77
2022/03/22 09:41:50;;;;;;;7.33;6.62;;;31.70;27.30;;;;;;961885;147;27266;-77
2022/03/22 09:44:18;;;;;;;6.50;5.92;;;31.50;26.80;;;;;;960377;147;27371;-76
2022/03/22 09:46:48;;;;;;;7.50;6.80;;;31.40;27.10;;;;;;963193;147;27343;-77
2022/03/22 09:49:13;;;;;;;6.80;6.05;;;31.10;27.10;;;;;;962299;147;27328;-77
2022/03/22 09:51:45;;;;;;;6.78;6.17;;;30.80;27.20;;;;;;962002;147;27290;-77
2022/03/22 09:54:12;;;;;;;7.45;6.75;;;30.60;27.30;;;;;;960687;147;27412;-77
2022/03/22 09:56:38;;;;;;;6.55;5.95;;;30.40;27.40;;;;;;960725;147;27353;-77
2022/03/22 09:59:05;;;;;;;6.40;5.75;;;30.20;27.10;;;;;;962289;147;27352;-77
2022/03/22 10:01:32;;;;;;;7.33;6.25;;;29.90;27.10;;;;;;962475;147;27305;-77
2022/03/22 10:04:03;;;;;;;6.60;5.95;;;29.70;27.00;;;;;;962699;147;27282;-77
2022/03/22 10:06:30;;;;;;;6.90;6.03;;;29.40;27.10;;;;;;963831;147;27485;-77
2022/03/22 10:08:56;;;;;;;6.20;5.70;;;29.10;26.90;;;;;;962167;147;27349;-77
2022/03/22 10:11:23;;;;;;;7.53;6.28;;;28.70;26.70;;;;;;961891;147;27281;-77
2022/03/22 10:13:50;;;;;;;6.20;5.67;;;28.30;26.30;;;;;;957115;147;27467;-77
2022/03/22 10:16:16;;;;;;;6.97;6.28;;;28.00;26.70;;;;;;952681;149;27360;-77
2022/03/22 10:18:43;;;;;;;7.03;5.78;;;27.50;26.60;;;;;;955804;149;27341;-77
2022/03/22 10:21:09;;;;;;;7.22;5.90;;;27.10;26.80;;;;;;952812;149;27371;-77
2022/03/22 10:23:36;;;;;;;6.53;5.92;;;26.80;26.70;;;;;;956873;149;27273;-77
2022/03/22 10:26:02;;;;;;;6.33;5.72;;;26.50;26.70;;;;;;951351;149;27226;-77
2022/03/22 10:28:29;;;;;;;6.65;5.90;;;26.10;26.60;;;;;;953619;149;27474;-77
2022/03/22 10:30:56;;;;;;;6.67;6.10;;;25.70;26.50;;;;;;954162;149;27342;-76
2022/03/22 10:33:22;;;;;;;6.30;5.80;;;25.40;26.70;;;;;;952271;149;27264;-77
2022/03/22 10:35:49;;;;;;;6.55;5.95;;;25.00;26.70;;;;;;953712;149;27253;-77
2022/03/22 10:38:18;;;;;;;6.70;5.45;;;24.60;26.90;;;;;;954730;148;27297;-77
2022/03/22 10:40:44;;;;;;;7.25;5.92;;;24.20;27.00;;;;;;953553;148;27307;-76
2022/03/22 10:43:09;;;;;;;6.40;5.80;;;23.90;27.20;;;;;;954227;149;27433;-76
2022/03/22 10:45:44;;;;;;;6.42;5.83;;;23.60;27.20;;;;;;954225;149;27822;-76
2022/03/22 10:48:10;;;;;;;7.42;5.90;;;23.30;27.30;;;;;;954076;149;27293;-77
2022/03/22 10:50:37;;;;;;;5.97;5.45;;;23.00;27.50;;;;;;954848;149;27309;-77
2022/03/22 10:53:03;;;;;;;6.58;5.97;;;22.80;27.70;;;;;;953758;149;27343;-76
2022/03/22 10:55:30;;;;;;;6.28;5.70;;;22.60;27.60;;;;;;953701;148;27329;-76
2022/03/22 10:57:57;;;;;;;5.50;5.00;;;22.40;27.70;;;;;;953711;149;27308;-76
2022/03/22 11:00:23;;;;;;;6.45;5.85;;;22.20;27.80;;;;;;954577;149;27360;-76
2022/03/22 11:02:50;;;;;;;6.28;5.33;;;21.90;27.90;;;;;;953717;149;27658;-77
2022/03/22 11:05:19;;;;;;;5.67;5.15;;;21.70;27.90;;;;;;954231;149;27400;-76
2022/03/22 11:07:43;;;;;;;5.30;4.80;;;21.50;28.10;;;;;;953779;149;27237;-76
2022/03/22 11:10:10;;;;;;;6.50;4.83;;;21.30;28.30;;;;;;956637;149;27230;-76
2022/03/22 11:12:37;;;;;;;5.72;5.20;;;21.20;28.50;;;;;;954704;149;27278;-76
2022/03/22 11:15:03;;;;;;;5.50;5.00;;;21.10;28.60;;;;;;960482;146;27362;-76
2022/03/22 11:17:34;;;;;;;4.60;4.20;;;21.00;28.40;;;;;;964030;147;27339;-76
2022/03/22 11:19:58;;;;;;;5.30;4.60;;;20.90;28.40;;;;;;960722;148;27361;-76
2022/03/22 11:22:23;;;;;;;4.58;4.17;;;20.80;28.40;;;;;;960544;148;27407;-76
2022/03/22 11:24:49;;;;;;;5.67;5.17;;;20.70;28.50;;;;;;961577;148;27348;-76
2022/03/22 11:27:16;;;;;;;4.95;4.55;;;20.50;28.30;;;;;;963039;148;27320;-76
2022/03/22 11:29:42;;;;;;;5.40;4.85;;;20.50;28.30;;;;;;959514;148;27331;-76
2022/03/22 11:34:53;;;;;;;5.00;4.50;;;20.20;28.50;;;;;;963119;148;27515;-76
2022/03/22 11:37:29;;;;;;;4.50;4.10;;;20.20;28.70;;;;;;959926;148;27351;-76
2022/03/22 11:42:41;;;;;;;4.72;4.33;;;20.10;28.80;;;;;;963061;148;27448;-77
2022/03/22 11:45:07;;;;;;;4.80;4.37;;;20.00;28.70;;;;;;960119;148;27449;-76
2022/03/22 11:47:40;;;;;;;5.67;5.15;;;20.00;28.80;;;;;;961750;148;27289;-76
2022/03/22 11:50:06;;;;;;;5.00;4.60;;;19.90;28.70;;;;;;962544;148;27296;-76
2022/03/22 11:52:36;;;;;;;4.58;4.17;;;19.90;28.70;;;;;;961475;147;27304;-77
2022/03/22 11:55:15;;;;;;;5.40;4.50;;;19.90;28.80;;;;;;980271;144;27289;-75
2022/03/22 11:57:44;;;;;;;5.33;4.83;;;19.80;28.90;;;;;;960021;148;27295;-75
2022/03/22 12:00:11;;;;;;;5.87;5.28;;;19.80;29.10;;;;;;960712;148;27850;-76
2022/03/22 12:02:37;;;;;;;4.95;4.55;;;19.80;29.00;;;;;;962615;148;27333;-76
2022/03/22 12:05:03;;;;;;;9.50;5.47;;;19.70;29.00;;;;;;963066;147;27340;-76
2022/03/22 12:07:34;;;;;;;4.83;4.37;;;19.70;29.00;;;;;;961910;148;27336;-76
2022/03/22 12:10:08;;;;;;;5.17;4.58;;;19.70;29.00;;;;;;962447;148;27417;-76
2022/03/22 12:12:34;;;;;;;5.90;4.40;;;19.70;28.90;;;;;;962274;148;27383;-77
2022/03/22 12:15:01;;;;;;;5.42;4.92;;;19.70;29.00;;;;;;965181;146;27379;-75
2022/03/22 12:17:27;;;;;;;5.42;4.67;;;19.70;28.90;;;;;;965906;146;27390;-76
2022/03/22 12:19:54;;;;;;;5.03;4.55;;;19.70;29.00;;;;;;959987;146;27406;-76
2022/03/22 12:22:24;;;;;;;5.42;4.92;;;19.70;29.10;;;;;;980797;143;27351;-76
2022/03/22 12:24:50;;;;;;;5.90;5.05;;;19.70;29.00;;;;;;981731;143;27259;-77
2022/03/22 12:27:17;;;;;;;5.62;5.03;;;19.70;29.50;;;;;;981800;143;27361;-77
2022/03/22 12:29:43;;;;;;;5.97;5.47;;;19.60;29.00;;;;;;966458;146;27346;-76
2022/03/22 12:32:16;;;;;;;5.42;4.90;;;19.60;29.00;;;;;;959803;146;27448;-76
2022/03/22 12:34:43;;;;;;;5.47;4.90;;;19.60;29.00;;;;;;978046;145;27230;-76
2022/03/22 12:37:09;;;;;;;5.50;5.00;;;19.60;29.00;;;;;;979667;145;27682;-77
2022/03/22 12:39:36;;;;;;;5.37;4.87;;;19.60;29.00;;;;;;980683;143;27329;-76
2022/03/22 12:42:02;;;;;;;5.75;5.15;;;19.60;29.00;;;;;;984192;143;27267;-76
2022/03/22 12:44:28;;;;;;;5.50;5.00;;;19.60;29.10;;;;;;982536;143;27224;-76
2022/03/22 12:46:55;;;;;;;4.97;4.58;;;19.60;29.10;;;;;;981552;143;27311;-77
2022/03/22 12:49:22;;;;;;;5.42;4.92;;;19.60;29.10;;;;;;981787;143;27381;-76
2022/03/22 12:51:48;;;;;;;5.92;5.35;;;19.60;29.20;;;;;;980456;142;27315;-75
2022/03/22 12:54:17;;;;;;;6.08;5.03;;;19.60;29.10;;;;;;967283;146;27372;-76
2022/03/22 12:56:44;;;;;;;5.97;4.87;;;19.60;29.10;;;;;;984539;143;27880;-76
2022/03/22 12:59:11;;;;;;;7.55;5.72;;;19.60;29.10;;;;;;974231;146;27245;-77
2022/03/22 13:01:38;;;;;;;6.47;4.47;;;19.60;29.10;;;;;;973317;146;27277;-76
2022/03/22 13:04:04;;;;;;;7.12;5.28;;;19.60;29.00;;;;;;974461;146;27285;-76
2022/03/22 13:06:30;;;;;;;5.37;4.87;;;19.60;29.10;;;;;;975196;146;27294;-76
2022/03/22 13:11:42;;;;;;;6.95;4.95;;;19.60;29.10;;;;;;975826;146;27340;-78
2022/03/22 13:16:35;;;;;;;5.55;5.05;;;19.60;29.00;;;;;;977206;144;38884;-75
2022/03/22 13:19:02;;;;;;;6.00;4.80;;;19.60;29.20;;;;;;968762;146;27365;-75
2022/03/22 13:21:32;;;;;;;5.55;4.50;;;19.60;29.20;;;;;;949758;149;27441;-74